logo
Search for airport 
image banner adimage banner adimage banner ad
image banner ad

LSZW - Thun

Located in Thun, Switzerland

ICAO - LSZW, IATA -

Data provided by Airmate  

General information

Coordinates: N46°45'23" E7°36'1"
Elevation is 1837 feet MSL.
Magnetic variation is 3.126° East
View others Airports in Berne

Operational data

Special qualification required
Current time UTC:
Current local time:
Weather at : LSZB - Bern-Belp ( 19 km )
METAR: LSZB 231650Z 32008KT 280V350 9999 SCT090 SCT110 26/16 Q1020
TAF: TAF LSZB 231425Z 2315/2324 31008KT 9999 SCT080 BKN110
View NOTAMs / SUP AIP / TFR affecting this airport [VIEW]
Communications frequencies: [VIEW]

Runways:

RWY identifierQFULength (ft)Width (ft)SurfaceLDA (ft)
14140°262598GRASS
32320°262598GRASS

Airport contact information

Address: Thun Switzerland

Other aviation service providers

Aviation club (not for profit)

Motorflugschule Der Mfg Thun

Motorflugschule Der Mfg Thun
hugostaehli1@vtxfree.ch+41313444291
+41333360704

Segelfluggruppe Thun

Segelfluggruppe Thun
berger.obrist@bluewin.ch+41797426668
+41797426668

Satellite view of LSZW